createdAt,value
2023-01-23T00:00:51.862Z,18.33
2023-01-23T00:04:52.854Z,16.80
2023-01-23T00:08:56.066Z,15.47
2023-01-23T00:12:57.204Z,17.20
2023-01-23T00:16:58.276Z,17.87
2023-01-23T00:21:05.921Z,19.57
2023-01-23T00:25:07.618Z,22.70
2023-01-23T00:29:09.107Z,17.73
2023-01-23T00:33:10.165Z,19.73
2023-01-23T00:37:11.141Z,18.57
2023-01-23T00:41:12.109Z,21.40
2023-01-23T00:45:13.131Z,19.57
2023-01-23T00:49:15.997Z,24.17
2023-01-23T00:53:17.102Z,22.53
2023-01-23T00:57:18.220Z,20.90
2023-01-23T01:01:19.468Z,18.57
2023-01-23T01:05:21.127Z,21.57
2023-01-23T01:09:22.224Z,22.90
2023-01-23T01:13:24.433Z,18.93
2023-01-23T01:17:25.551Z,23.90
2023-01-23T01:21:26.654Z,25.03
2023-01-23T01:25:27.651Z,23.47
2023-01-23T01:29:28.620Z,23.43
2023-01-23T01:33:29.766Z,22.20
2023-01-23T01:37:36.521Z,23.57
2023-01-23T01:41:37.598Z,22.53
2023-01-23T01:46:11.253Z,21.23
2023-01-23T01:50:13.106Z,22.27
2023-01-23T01:54:28.085Z,23.00
2023-01-23T01:58:29.436Z,24.77
2023-01-23T02:02:40.032Z,23.30
2023-01-23T02:06:41.330Z,22.47
2023-01-23T02:10:43.676Z,21.30
2023-01-23T02:14:45.118Z,20.70
2023-01-23T02:18:49.721Z,20.27
2023-01-23T02:23:01.145Z,23.83
2023-01-23T02:27:02.768Z,23.73
2023-01-23T02:31:04.380Z,22.80
2023-01-23T02:35:13.362Z,20.67
2023-01-23T02:39:19.373Z,18.73
2023-01-23T02:43:24.290Z,21.67
2023-01-23T02:47:25.570Z,21.97
2023-01-23T02:51:26.618Z,21.73
2023-01-23T02:55:32.953Z,21.93
2023-01-23T02:59:52.253Z,23.57
2023-01-23T03:03:57.234Z,21.17
2023-01-23T03:07:58.309Z,24.63
2023-01-23T03:12:00.298Z,24.50
2023-01-23T03:16:01.300Z,22.73
2023-01-23T03:20:03.737Z,22.77
2023-01-23T03:24:05.966Z,22.00
2023-01-23T03:28:08.964Z,21.77
2023-01-23T03:32:11.809Z,21.40
2023-01-23T03:36:14.126Z,19.70
2023-01-23T03:40:35.993Z,20.23
2023-01-23T03:44:37.426Z,19.33
2023-01-23T03:48:39.919Z,18.60
2023-01-23T03:52:41.685Z,22.50
2023-01-23T03:56:42.763Z,20.80
2023-01-23T04:00:44.016Z,20.67
2023-01-23T04:04:45.134Z,21.60
2023-01-23T04:08:46.197Z,18.83
2023-01-23T04:12:47.140Z,18.23
2023-01-23T04:16:48.107Z,24.93
2023-01-23T04:20:49.251Z,22.03
2023-01-23T04:24:50.177Z,20.70
2023-01-23T04:28:51.257Z,21.73
2023-01-23T04:32:52.213Z,19.63
2023-01-23T04:36:53.320Z,19.20
2023-01-23T04:40:54.891Z,19.57
2023-01-23T04:44:55.995Z,20.93
2023-01-23T04:48:56.956Z,17.47
2023-01-23T04:52:58.045Z,17.33
2023-01-23T04:56:59.032Z,17.53
2023-01-23T05:01:05.157Z,17.70
2023-01-23T05:05:07.102Z,16.53
2023-01-23T05:09:08.173Z,17.23
2023-01-23T05:13:09.869Z,18.40
2023-01-23T05:17:10.828Z,16.80
2023-01-23T05:21:11.721Z,19.07
2023-01-23T05:25:12.903Z,18.43
2023-01-23T05:29:13.896Z,18.23
2023-01-23T05:33:15.069Z,17.60
2023-01-23T05:37:16.178Z,18.43
2023-01-23T05:41:17.252Z,17.10
2023-01-23T05:45:19.028Z,15.23
2023-01-23T05:49:20.111Z,18.27
2023-01-23T05:53:21.151Z,17.37
2023-01-23T05:57:22.088Z,17.83
2023-01-23T06:01:23.550Z,15.80
2023-01-23T06:05:24.458Z,18.27
2023-01-23T06:09:25.410Z,16.07
2023-01-23T06:13:27.602Z,17.17
2023-01-23T06:17:28.561Z,18.33
2023-01-23T06:21:29.841Z,16.57
2023-01-23T06:25:30.790Z,18.17
2023-01-23T06:29:31.913Z,18.03
2023-01-23T06:33:32.867Z,17.43
2023-01-23T06:37:33.920Z,15.60
2023-01-23T06:41:35.871Z,17.43
2023-01-23T06:45:36.868Z,16.60
2023-01-23T06:49:38.021Z,18.90
2023-01-23T06:53:38.989Z,17.13
2023-01-23T06:57:40.246Z,18.60
2023-01-23T07:01:42.281Z,18.27
2023-01-23T07:05:43.643Z,18.00
2023-01-23T07:09:44.579Z,18.50
2023-01-23T07:13:45.704Z,17.60
2023-01-23T07:17:46.897Z,19.87
2023-01-23T07:21:48.773Z,19.37
2023-01-23T07:25:50.091Z,19.10
2023-01-23T07:29:51.070Z,18.97
2023-01-23T07:33:52.185Z,20.20
2023-01-23T07:37:53.608Z,20.33
2023-01-23T07:41:54.786Z,19.70
2023-01-23T07:45:58.767Z,21.20
2023-01-23T07:49:59.854Z,20.70
2023-01-23T07:54:01.191Z,20.77
2023-01-23T07:58:02.344Z,20.03
2023-01-23T08:02:03.540Z,17.83
2023-01-23T08:06:04.857Z,20.17
2023-01-23T08:10:07.620Z,19.93
2023-01-23T08:14:08.912Z,18.77
2023-01-23T08:18:09.863Z,18.83
2023-01-23T08:22:11.091Z,20.27
2023-01-23T08:26:14.189Z,19.87
2023-01-23T08:30:15.782Z,17.43
2023-01-23T08:34:16.984Z,21.90
2023-01-23T08:38:20.872Z,27.27
2023-01-23T08:42:22.060Z,19.37
2023-01-23T08:46:23.230Z,18.03
2023-01-23T08:50:24.259Z,15.87
2023-01-23T08:54:25.590Z,16.97
2023-01-23T08:58:26.765Z,19.80
2023-01-23T09:02:27.961Z,19.87
2023-01-23T09:06:29.132Z,28.83
2023-01-23T09:10:30.313Z,18.30
2023-01-23T09:14:32.561Z,23.07
2023-01-23T09:18:34.119Z,18.33
2023-01-23T09:22:35.248Z,34.87
2023-01-23T09:26:37.193Z,23.03
2023-01-23T09:30:38.452Z,38.10
2023-01-23T09:34:39.642Z,20.63
2023-01-23T09:38:40.875Z,20.87
2023-01-23T09:42:42.125Z,27.47
2023-01-23T09:46:53.317Z,20.70
2023-01-23T09:50:58.313Z,24.30
2023-01-23T09:55:12.259Z,28.53
2023-01-23T09:59:17.228Z,17.27
2023-01-23T10:03:18.746Z,19.03
2023-01-23T10:07:35.711Z,18.87
2023-01-23T10:11:43.258Z,14.23
2023-01-23T10:16:11.846Z,14.00
2023-01-23T10:20:19.731Z,13.13
2023-01-23T10:24:24.788Z,12.60
2023-01-23T10:28:38.989Z,14.77
2023-01-23T10:32:52.915Z,13.43
2023-01-23T10:37:14.052Z,14.87
2023-01-23T10:41:23.219Z,14.97
2023-01-23T10:45:24.621Z,22.07
2023-01-23T10:49:37.253Z,38.90
2023-01-23T10:53:38.389Z,35.60
2023-01-23T10:57:48.529Z,20.83
2023-01-23T11:01:59.534Z,19.17
2023-01-23T11:06:06.783Z,15.83
2023-01-23T11:10:11.722Z,14.80
2023-01-23T11:14:16.283Z,13.17
2023-01-23T11:18:36.211Z,13.27
2023-01-23T11:22:41.112Z,15.03
2023-01-23T11:26:43.240Z,14.73
2023-01-23T11:30:48.323Z,33.50
2023-01-23T11:34:52.789Z,23.80
2023-01-23T11:39:04.297Z,23.13
2023-01-23T11:43:14.276Z,15.07
2023-01-23T11:47:33.725Z,17.40
2023-01-23T11:51:46.124Z,17.30
2023-01-23T11:56:02.932Z,13.73
2023-01-23T12:00:37.295Z,36.90
2023-01-23T12:04:58.455Z,21.10
2023-01-23T12:09:09.277Z,17.53
2023-01-23T12:13:14.207Z,19.67
2023-01-23T12:17:30.647Z,16.20
2023-01-23T12:21:35.546Z,14.67
2023-01-23T12:25:39.010Z,12.40
2023-01-23T12:29:49.862Z,13.33
2023-01-23T12:34:21.837Z,14.17
2023-01-23T12:38:30.846Z,17.33
2023-01-23T12:42:52.043Z,14.87
2023-01-23T12:46:56.925Z,13.77
2023-01-23T12:51:10.493Z,13.60
2023-01-23T12:55:24.277Z,14.20
2023-01-23T12:59:40.973Z,12.70
2023-01-23T13:03:46.832Z,15.60
2023-01-23T13:07:57.607Z,14.30
2023-01-23T13:12:16.653Z,16.73
2023-01-23T13:16:19.650Z,19.90
2023-01-23T13:20:51.629Z,15.87
2023-01-23T13:29:04.031Z,15.20
2023-01-23T13:33:08.860Z,14.37
2023-01-23T13:37:32.075Z,15.53
2023-01-23T13:41:33.403Z,16.87
2023-01-23T13:45:35.216Z,14.73
2023-01-23T13:49:51.856Z,14.50
2023-01-23T13:54:12.001Z,12.10
2023-01-23T13:58:16.303Z,12.63
2023-01-23T14:02:54.619Z,13.37
2023-01-23T14:06:55.656Z,13.50
2023-01-23T14:10:57.071Z,13.17
2023-01-23T14:15:16.245Z,15.47
2023-01-23T14:19:26.274Z,14.33
2023-01-23T14:23:31.153Z,13.80
2023-01-23T14:27:54.294Z,12.97
2023-01-23T14:31:41.618Z,15.57
2023-01-23T14:35:43.208Z,14.47
2023-01-23T14:39:53.205Z,13.40
2023-01-23T14:43:55.287Z,15.97
2023-01-23T14:48:05.678Z,13.80
2023-01-23T14:52:04.845Z,14.23
2023-01-23T14:56:07.284Z,15.50
2023-01-23T15:00:12.293Z,14.20
2023-01-23T15:04:21.368Z,12.87
2023-01-23T15:08:26.983Z,15.03
2023-01-23T15:12:28.206Z,15.07
2023-01-23T15:16:35.492Z,13.63
2023-01-23T15:20:40.563Z,14.67
2023-01-23T15:24:41.545Z,14.57
2023-01-23T15:28:57.758Z,14.80
2023-01-23T15:33:05.792Z,15.33
2023-01-23T15:37:16.822Z,12.07
2023-01-23T15:41:30.068Z,13.13
2023-01-23T15:45:20.987Z,14.20
2023-01-23T15:49:25.926Z,12.10
2023-01-23T15:53:25.118Z,14.23
2023-01-23T15:57:26.396Z,13.73
2023-01-23T16:01:28.568Z,13.43
2023-01-23T16:05:32.624Z,13.30
2023-01-23T16:09:37.216Z,12.77
2023-01-23T16:13:38.238Z,14.07
2023-01-23T16:17:39.207Z,10.33
2023-01-23T16:21:45.854Z,13.23
2023-01-23T16:25:47.552Z,13.50
2023-01-23T16:29:49.708Z,11.30
2023-01-23T16:33:51.266Z,12.77
2023-01-23T16:37:53.340Z,12.50
2023-01-23T16:41:54.766Z,12.73
2023-01-23T16:45:57.050Z,13.77
2023-01-23T16:49:57.993Z,12.87
2023-01-23T16:54:03.848Z,14.33
2023-01-23T16:58:03.233Z,12.13
2023-01-23T17:02:07.808Z,14.90
2023-01-23T17:06:14.058Z,13.17
2023-01-23T17:10:19.535Z,14.13
2023-01-23T17:14:24.318Z,15.17
2023-01-23T17:18:27.608Z,13.87
2023-01-23T17:22:31.402Z,13.27
2023-01-23T17:26:32.565Z,13.97
2023-01-23T17:30:34.243Z,10.33
2023-01-23T17:34:45.088Z,11.77
2023-01-23T17:38:41.622Z,12.77
2023-01-23T17:42:43.221Z,11.20
2023-01-23T17:46:45.559Z,16.27
2023-01-23T17:50:46.866Z,16.50
2023-01-23T17:54:48.981Z,13.23
2023-01-23T17:58:50.097Z,16.00
2023-01-23T18:02:55.015Z,14.97
2023-01-23T18:06:56.161Z,19.40
2023-01-23T18:10:59.346Z,16.57
2023-01-23T18:15:07.400Z,16.23
2023-01-23T18:19:24.646Z,19.03
2023-01-23T18:23:31.154Z,17.45
2023-01-23T18:27:35.622Z,16.40
2023-01-23T18:32:07.897Z,19.67
2023-01-23T18:36:24.647Z,16.27
2023-01-23T18:40:38.626Z,16.13
2023-01-23T18:44:43.608Z,18.97
2023-01-23T18:48:48.843Z,15.83
2023-01-23T18:53:04.587Z,16.30
2023-01-23T18:57:24.495Z,17.20
2023-01-23T19:01:35.064Z,14.37
2023-01-23T19:05:38.332Z,16.23
2023-01-23T19:09:41.452Z,18.53
2023-01-23T19:13:46.304Z,17.20
2023-01-23T19:17:51.127Z,17.37
2023-01-23T19:21:52.991Z,15.23
2023-01-23T19:25:54.624Z,17.40
2023-01-23T19:29:56.068Z,17.87
2023-01-23T19:34:00.106Z,21.97
2023-01-23T19:38:01.248Z,19.47
2023-01-23T19:42:02.415Z,20.30
2023-01-23T19:46:04.183Z,19.40
2023-01-23T19:50:06.135Z,17.90
2023-01-23T19:54:08.947Z,17.27
2023-01-23T19:58:09.945Z,15.13
2023-01-23T20:02:18.810Z,16.03
2023-01-23T20:06:19.983Z,16.50
2023-01-23T20:10:21.916Z,19.13
2023-01-23T20:14:24.638Z,16.53
2023-01-23T20:18:25.641Z,14.70
2023-01-23T20:22:28.828Z,19.63
2023-01-23T20:30:54.684Z,19.07
2023-01-23T20:34:55.745Z,17.60
2023-01-23T20:38:56.701Z,17.37
2023-01-23T20:42:57.795Z,15.57
2023-01-23T20:46:58.783Z,17.13
2023-01-23T20:50:59.921Z,15.53
2023-01-23T20:55:00.990Z,19.27
2023-01-23T20:59:21.790Z,17.47
2023-01-23T21:03:22.779Z,17.20
2023-01-23T21:07:25.474Z,16.00
2023-01-23T21:11:26.872Z,19.90
2023-01-23T21:15:27.835Z,18.93
2023-01-23T21:19:28.764Z,18.43
2023-01-23T21:23:29.916Z,25.77
2023-01-23T21:27:31.169Z,18.00
2023-01-23T21:31:34.826Z,18.00
2023-01-23T21:35:35.945Z,17.00
2023-01-23T21:39:38.233Z,16.60
2023-01-23T21:43:39.179Z,18.33
2023-01-23T21:47:40.139Z,17.37
2023-01-23T21:51:41.130Z,18.93
2023-01-23T21:55:42.217Z,18.93
2023-01-23T21:59:45.093Z,18.17
2023-01-23T22:03:47.629Z,15.63
2023-01-23T22:07:49.813Z,18.60
2023-01-23T22:11:50.893Z,17.93
2023-01-23T22:15:51.888Z,18.10
2023-01-23T22:19:52.887Z,17.63
2023-01-23T22:23:54.748Z,17.90
2023-01-23T22:27:56.030Z,17.87
2023-01-23T22:31:57.335Z,18.37
2023-01-23T22:36:00.232Z,18.00
2023-01-23T22:40:01.406Z,18.27
2023-01-23T22:44:02.511Z,16.97
2023-01-23T22:48:04.160Z,17.73
2023-01-23T22:52:05.133Z,19.43
2023-01-23T22:56:06.910Z,18.40
2023-01-23T23:00:12.118Z,18.03
2023-01-23T23:04:13.050Z,16.20
2023-01-23T23:08:14.254Z,19.17
2023-01-23T23:12:15.449Z,16.57
2023-01-23T23:16:20.140Z,18.90
2023-01-23T23:20:21.251Z,19.60
2023-01-23T23:24:22.501Z,20.57
2023-01-23T23:28:25.570Z,21.83
2023-01-23T23:32:26.535Z,19.53
2023-01-23T23:36:27.726Z,18.13
2023-01-23T23:40:28.763Z,19.80
2023-01-23T23:44:29.886Z,20.20
2023-01-23T23:48:33.745Z,20.57
2023-01-23T23:52:36.086Z,19.37
2023-01-23T23:56:37.623Z,19.60
